createdAt,value
2019-02-24T00:00:13.025Z,1022.53
2019-02-24T00:01:13.039Z,1022.51
2019-02-24T00:02:13.030Z,1022.53
2019-02-24T00:03:13.004Z,1022.53
2019-02-24T00:04:12.989Z,1022.54
2019-02-24T00:05:12.975Z,1022.60
2019-02-24T00:06:12.985Z,1022.57
2019-02-24T00:07:12.961Z,1022.57
2019-02-24T00:08:12.979Z,1022.57
2019-02-24T00:09:12.974Z,1022.56
2019-02-24T00:10:12.918Z,1022.60
2019-02-24T00:11:12.930Z,1022.61
2019-02-24T00:12:12.906Z,1022.58
2019-02-24T00:13:12.897Z,1022.56
2019-02-24T00:14:12.875Z,1022.55
2019-02-24T00:15:12.896Z,1022.56
2019-02-24T00:16:12.855Z,1022.47
2019-02-24T00:17:12.877Z,1022.46
2019-02-24T00:18:12.887Z,1022.48
2019-02-24T00:19:12.859Z,1022.47
2019-02-24T00:20:12.816Z,1022.52
2019-02-24T00:21:12.808Z,1022.50
2019-02-24T00:22:12.817Z,1022.48
2019-02-24T00:23:12.782Z,1022.48
2019-02-24T00:24:12.786Z,1022.52
2019-02-24T00:25:12.756Z,1022.53
2019-02-24T00:26:12.759Z,1022.49
2019-02-24T00:27:12.745Z,1022.49
2019-02-24T00:28:12.744Z,1022.46
2019-02-24T00:29:12.750Z,1022.49
2019-02-24T00:30:12.711Z,1022.41
2019-02-24T00:31:12.696Z,1022.43
2019-02-24T00:32:12.685Z,1022.44
2019-02-24T00:33:12.689Z,1022.44
2019-02-24T00:34:12.681Z,1022.46
2019-02-24T00:35:12.686Z,1022.40
2019-02-24T00:36:12.657Z,1022.40
2019-02-24T00:37:12.674Z,1022.41
2019-02-24T00:38:12.640Z,1022.38
2019-02-24T00:39:12.621Z,1022.43
2019-02-24T00:40:12.604Z,1022.43
2019-02-24T00:41:12.621Z,1022.43
2019-02-24T00:42:12.575Z,1022.43
2019-02-24T00:43:12.577Z,1022.40
2019-02-24T00:44:12.555Z,1022.42
2019-02-24T00:45:12.553Z,1022.47
2019-02-24T00:46:12.544Z,1022.53
2019-02-24T00:47:12.547Z,1022.52
2019-02-24T00:48:12.531Z,1022.53
2019-02-24T00:49:12.501Z,1022.49
2019-02-24T00:50:12.495Z,1022.50
2019-02-24T00:51:12.484Z,1022.48
2019-02-24T00:52:12.477Z,1022.47
2019-02-24T00:53:12.554Z,1022.46
2019-02-24T00:54:12.469Z,1022.42
2019-02-24T00:55:12.440Z,1022.41
2019-02-24T00:56:12.424Z,1022.44
2019-02-24T00:57:12.430Z,1022.42
2019-02-24T00:58:16.191Z,1022.43
2019-02-24T00:59:12.424Z,1022.37
2019-02-24T01:00:12.467Z,1022.39
2019-02-24T01:01:12.386Z,1022.44
2019-02-24T01:02:12.366Z,1022.46
2019-02-24T01:03:12.356Z,1022.44
2019-02-24T01:04:12.349Z,1022.43
2019-02-24T01:05:12.336Z,1022.44
2019-02-24T01:06:12.376Z,1022.40
2019-02-24T01:07:12.312Z,1022.44
2019-02-24T01:08:12.307Z,1022.38
2019-02-24T01:09:12.298Z,1022.40
2019-02-24T01:10:12.283Z,1022.36
2019-02-24T01:11:12.277Z,1022.43
2019-02-24T01:12:12.332Z,1022.47
2019-02-24T01:13:12.248Z,1022.43
2019-02-24T01:14:12.233Z,1022.40
2019-02-24T01:15:12.244Z,1022.42
2019-02-24T01:16:12.225Z,1022.48
2019-02-24T01:17:12.237Z,1022.49
2019-02-24T01:18:12.228Z,1022.39
2019-02-24T01:19:12.178Z,1022.43
2019-02-24T01:20:12.183Z,1022.45
2019-02-24T01:21:12.155Z,1022.47
2019-02-24T01:22:12.167Z,1022.49
2019-02-24T01:23:12.137Z,1022.44
2019-02-24T01:24:12.193Z,1022.48
2019-02-24T01:25:12.117Z,1022.44
2019-02-24T01:26:12.124Z,1022.46
2019-02-24T01:27:12.094Z,1022.44
2019-02-24T01:28:12.085Z,1022.45
2019-02-24T01:29:12.067Z,1022.45
2019-02-24T01:30:12.154Z,1022.42
2019-02-24T01:31:12.070Z,1022.42
2019-02-24T01:32:12.038Z,1022.43
2019-02-24T01:33:12.031Z,1022.38
2019-02-24T01:34:12.032Z,1022.43
2019-02-24T01:35:12.009Z,1022.42
2019-02-24T01:36:12.041Z,1022.35
2019-02-24T01:37:12.008Z,1022.39
2019-02-24T01:38:11.978Z,1022.36
2019-02-24T01:39:11.966Z,1022.36
2019-02-24T01:40:11.968Z,1022.30
2019-02-24T01:41:11.953Z,1022.33
2019-02-24T01:42:11.955Z,1022.33
2019-02-24T01:43:11.922Z,1022.33
2019-02-24T01:44:11.961Z,1022.34
2019-02-24T01:45:11.902Z,1022.35
2019-02-24T01:46:11.894Z,1022.30
2019-02-24T01:47:11.878Z,1022.34
2019-02-24T01:48:11.895Z,1022.36
2019-02-24T01:49:11.853Z,1022.36
2019-02-24T01:50:11.887Z,1022.41
2019-02-24T01:51:11.843Z,1022.38
2019-02-24T01:52:11.827Z,1022.34
2019-02-24T01:53:11.819Z,1022.33
2019-02-24T01:54:11.816Z,1022.38
2019-02-24T01:55:11.793Z,1022.36
2019-02-24T01:56:11.843Z,1022.40
2019-02-24T01:57:11.774Z,1022.42
2019-02-24T01:58:11.773Z,1022.39
2019-02-24T01:59:11.752Z,1022.37
2019-02-24T02:00:11.750Z,1022.42
2019-02-24T02:01:11.735Z,1022.39
2019-02-24T02:02:11.741Z,1022.34
2019-02-24T02:03:11.711Z,1022.39
2019-02-24T02:04:11.713Z,1022.36
2019-02-24T02:05:11.705Z,1022.36
2019-02-24T02:06:11.673Z,1022.37
2019-02-24T02:07:11.663Z,1022.32
2019-02-24T02:08:11.657Z,1022.38
2019-02-24T02:09:11.650Z,1022.32
2019-02-24T02:10:11.649Z,1022.32
2019-02-24T02:11:11.641Z,1022.35
2019-02-24T02:12:11.617Z,1022.30
2019-02-24T02:13:11.604Z,1022.29
2019-02-24T02:14:11.654Z,1022.28
2019-02-24T02:15:11.588Z,1022.29
2019-02-24T02:16:11.587Z,1022.31
2019-02-24T02:17:11.559Z,1022.33
2019-02-24T02:18:11.560Z,1022.27
2019-02-24T02:19:11.556Z,1022.23
2019-02-24T02:20:11.533Z,1022.29
2019-02-24T02:21:11.513Z,1022.28
2019-02-24T02:22:11.548Z,1022.28
2019-02-24T02:23:11.504Z,1022.29
2019-02-24T02:24:11.515Z,1022.31
2019-02-24T02:25:11.477Z,1022.33
2019-02-24T02:26:11.461Z,1022.27
2019-02-24T02:27:11.450Z,1022.27
2019-02-24T02:28:11.438Z,1022.24
2019-02-24T02:29:11.448Z,1022.22
2019-02-24T02:30:11.543Z,1022.26
2019-02-24T02:31:11.430Z,1022.19
2019-02-24T02:32:11.401Z,1022.25
2019-02-24T02:33:11.400Z,1022.12
2019-02-24T02:34:11.384Z,1022.15
2019-02-24T02:35:11.416Z,1022.17
2019-02-24T02:36:11.370Z,1022.15
2019-02-24T02:37:11.357Z,1022.18
2019-02-24T02:38:11.334Z,1022.14
2019-02-24T02:39:11.343Z,1022.18
2019-02-24T02:40:11.315Z,1022.19
2019-02-24T02:41:11.412Z,1022.14
2019-02-24T02:42:11.304Z,1022.11
2019-02-24T02:43:11.287Z,1022.12
2019-02-24T02:44:11.271Z,1022.12
2019-02-24T02:45:11.282Z,1022.10
2019-02-24T02:46:11.253Z,1022.07
2019-02-24T02:47:11.280Z,1022.08
2019-02-24T02:48:11.226Z,1022.09
2019-02-24T02:49:11.217Z,1022.09
2019-02-24T02:50:11.215Z,1022.07
2019-02-24T02:51:11.218Z,1022.07
2019-02-24T02:52:11.185Z,1022.03
2019-02-24T02:53:11.200Z,1022.00
2019-02-24T02:54:11.172Z,1021.97
2019-02-24T02:55:11.183Z,1021.95
2019-02-24T02:56:13.091Z,1021.99
2019-02-24T02:57:11.146Z,1022.01
2019-02-24T02:58:11.120Z,1021.98
2019-02-24T02:59:11.125Z,1021.94
2019-02-24T03:00:11.104Z,1021.95
2019-02-24T03:01:11.103Z,1021.96
2019-02-24T03:02:11.088Z,1021.88
2019-02-24T03:03:11.082Z,1021.91
2019-02-24T03:04:11.068Z,1021.94
2019-02-24T03:05:11.114Z,1021.88
2019-02-24T03:06:11.036Z,1021.92
2019-02-24T03:07:11.030Z,1021.84
2019-02-24T03:08:11.046Z,1021.86
2019-02-24T03:09:11.012Z,1021.85
2019-02-24T03:10:11.014Z,1021.86
2019-02-24T03:11:11.073Z,1021.79
2019-02-24T03:12:11.049Z,1021.79
2019-02-24T03:13:10.960Z,1021.82
2019-02-24T03:14:11.045Z,1021.78
2019-02-24T03:15:10.999Z,1021.80
2019-02-24T03:16:10.943Z,1021.81
2019-02-24T03:17:10.937Z,1021.82
2019-02-24T03:18:10.956Z,1021.83
2019-02-24T03:19:10.899Z,1021.80
2019-02-24T03:20:10.900Z,1021.82
2019-02-24T03:21:10.879Z,1021.79
2019-02-24T03:22:10.886Z,1021.79
2019-02-24T03:23:10.933Z,1021.79
2019-02-24T03:24:10.845Z,1021.79
2019-02-24T03:25:10.843Z,1021.80
2019-02-24T03:26:10.832Z,1021.81
2019-02-24T03:27:10.823Z,1021.77
2019-02-24T03:28:10.827Z,1021.80
2019-02-24T03:29:10.826Z,1021.79
2019-02-24T03:30:10.785Z,1021.81
2019-02-24T03:31:10.787Z,1021.83
2019-02-24T03:32:10.815Z,1021.84
2019-02-24T03:33:10.759Z,1021.81
2019-02-24T03:34:10.745Z,1021.86
2019-02-24T03:35:10.731Z,1021.90
2019-02-24T03:36:10.741Z,1021.89
2019-02-24T03:37:10.760Z,1021.84
2019-02-24T03:38:10.721Z,1021.84
2019-02-24T03:39:10.698Z,1021.89
2019-02-24T03:40:10.682Z,1021.85
2019-02-24T03:41:10.675Z,1021.88
2019-02-24T03:42:10.652Z,1021.88
2019-02-24T03:43:10.683Z,1021.91
2019-02-24T03:44:10.656Z,1021.87
2019-02-24T03:45:10.629Z,1021.88
2019-02-24T03:46:10.622Z,1021.85
2019-02-24T03:47:10.602Z,1021.77
2019-02-24T03:48:10.601Z,1021.80
2019-02-24T03:49:10.647Z,1021.81
2019-02-24T03:50:10.576Z,1021.80
2019-02-24T03:51:10.560Z,1021.78
2019-02-24T03:52:10.564Z,1021.77
2019-02-24T03:53:10.532Z,1021.80
2019-02-24T03:54:10.555Z,1021.83
2019-02-24T03:55:10.519Z,1021.76
2019-02-24T03:56:10.546Z,1021.78
2019-02-24T03:57:10.497Z,1021.76
2019-02-24T03:58:10.493Z,1021.80
2019-02-24T03:59:15.007Z,1021.80
2019-02-24T04:00:10.477Z,1021.82
2019-02-24T04:01:10.456Z,1021.85
2019-02-24T04:02:10.560Z,1021.84
2019-02-24T04:03:10.431Z,1021.82
2019-02-24T04:04:10.423Z,1021.81
2019-02-24T04:05:10.436Z,1021.83
2019-02-24T04:06:10.410Z,1021.81
2019-02-24T04:07:10.408Z,1021.83
2019-02-24T04:08:10.382Z,1021.87
2019-02-24T04:09:10.421Z,1021.91
2019-02-24T04:10:10.353Z,1021.86
2019-02-24T04:11:10.365Z,1021.91
2019-02-24T04:12:10.337Z,1021.91
2019-02-24T04:13:10.330Z,1021.87
2019-02-24T04:14:10.315Z,1021.97
2019-02-24T04:15:10.331Z,1021.87
2019-02-24T04:16:10.303Z,1021.93
2019-02-24T04:17:10.283Z,1021.96
2019-02-24T04:18:10.279Z,1021.93
2019-02-24T04:19:10.271Z,1021.96
2019-02-24T04:20:10.269Z,1021.97
2019-02-24T04:21:10.302Z,1021.97
2019-02-24T04:22:10.230Z,1021.97
2019-02-24T04:23:10.221Z,1021.94
2019-02-24T04:24:10.208Z,1022.03
2019-02-24T04:25:10.195Z,1022.03
2019-02-24T04:26:10.214Z,1021.98
2019-02-24T04:27:11.739Z,1022.02
2019-02-24T04:28:10.165Z,1022.00
2019-02-24T04:29:10.164Z,1021.96
2019-02-24T04:30:10.155Z,1021.98
2019-02-24T04:31:10.148Z,1021.94
2019-02-24T04:32:10.126Z,1021.98
2019-02-24T04:33:10.116Z,1022.00
2019-02-24T04:34:10.147Z,1022.00
2019-02-24T04:35:10.097Z,1022.03
2019-02-24T04:36:10.096Z,1022.07
2019-02-24T04:37:10.068Z,1022.05
2019-02-24T04:38:10.065Z,1022.01
2019-02-24T04:39:10.056Z,1022.01
2019-02-24T04:40:10.064Z,1022.02
2019-02-24T04:41:10.053Z,1021.97
2019-02-24T04:42:10.029Z,1022.04
2019-02-24T04:43:10.026Z,1021.99
2019-02-24T04:44:10.012Z,1021.95
2019-02-24T04:45:09.992Z,1021.98
2019-02-24T04:46:09.973Z,1021.99
2019-02-24T04:47:10.027Z,1022.01
2019-02-24T04:48:09.961Z,1021.99
2019-02-24T04:49:09.940Z,1022.00
2019-02-24T04:50:09.952Z,1021.97
2019-02-24T04:51:09.926Z,1022.05
2019-02-24T04:52:09.951Z,1022.01
2019-02-24T04:53:09.966Z,1022.02
2019-02-24T04:54:09.890Z,1022.01
2019-02-24T04:55:09.893Z,1021.98
2019-02-24T04:56:09.867Z,1021.97
2019-02-24T04:57:09.859Z,1021.97
2019-02-24T04:58:09.862Z,1022.00
2019-02-24T04:59:09.841Z,1022.01
2019-02-24T05:00:09.900Z,1021.94
2019-02-24T05:01:09.812Z,1021.96
2019-02-24T05:02:09.811Z,1021.95
2019-02-24T05:03:09.807Z,1021.95
2019-02-24T05:04:09.802Z,1021.94
2019-02-24T05:05:09.786Z,1021.91
2019-02-24T05:06:09.791Z,1021.93
2019-02-24T05:07:09.752Z,1021.92
2019-02-24T05:08:09.752Z,1021.90
2019-02-24T05:09:09.746Z,1021.91
2019-02-24T05:10:09.725Z,1021.89
2019-02-24T05:11:09.731Z,1021.92
2019-02-24T05:12:09.756Z,1021.86
2019-02-24T05:13:09.704Z,1021.91
2019-02-24T05:14:09.711Z,1021.91
2019-02-24T05:15:09.665Z,1021.87
2019-02-24T05:16:09.662Z,1021.89
2019-02-24T05:17:09.654Z,1021.88
2019-02-24T05:18:09.636Z,1021.92
2019-02-24T05:19:09.672Z,1021.90
2019-02-24T05:20:09.611Z,1021.89
2019-02-24T05:21:09.603Z,1021.92
2019-02-24T05:22:09.598Z,1021.92
2019-02-24T05:23:09.584Z,1021.92
2019-02-24T05:24:09.584Z,1021.90
2019-02-24T05:25:09.610Z,1021.99
2019-02-24T05:26:09.544Z,1021.92
2019-02-24T05:27:09.551Z,1021.88
2019-02-24T05:28:09.532Z,1021.94
2019-02-24T05:29:09.528Z,1021.98
2019-02-24T05:30:09.527Z,1021.92
2019-02-24T05:31:09.560Z,1021.93
2019-02-24T05:32:09.483Z,1021.94
2019-02-24T05:33:09.469Z,1021.92
2019-02-24T05:34:09.472Z,1021.96
2019-02-24T05:35:09.477Z,1021.92
2019-02-24T05:36:09.445Z,1021.88
2019-02-24T05:37:09.469Z,1021.92
2019-02-24T05:38:09.418Z,1021.97
2019-02-24T05:39:09.407Z,1021.90
2019-02-24T05:40:09.408Z,1021.92
2019-02-24T05:41:09.413Z,1021.96
2019-02-24T05:42:09.394Z,1021.94
2019-02-24T05:43:09.373Z,1022.05
2019-02-24T05:44:09.375Z,1022.02
2019-02-24T05:45:09.362Z,1022.07
2019-02-24T05:46:09.329Z,1022.12
2019-02-24T05:47:09.334Z,1022.07
2019-02-24T05:48:09.320Z,1022.09
2019-02-24T05:49:09.316Z,1022.14
2019-02-24T05:50:09.327Z,1022.12
2019-02-24T05:51:09.298Z,1022.12
2019-02-24T05:52:09.279Z,1022.12
2019-02-24T05:53:09.311Z,1022.14
2019-02-24T05:54:09.249Z,1022.10
2019-02-24T05:55:09.257Z,1022.11
2019-02-24T05:56:09.278Z,1022.10
2019-02-24T05:57:09.222Z,1022.12
2019-02-24T05:58:09.203Z,1022.14
2019-02-24T05:59:09.251Z,1022.10
2019-02-24T06:00:09.179Z,1022.14
2019-02-24T06:01:09.205Z,1022.12
2019-02-24T06:02:09.181Z,1022.09
2019-02-24T06:03:09.160Z,1022.14
2019-02-24T06:04:09.133Z,1022.13
2019-02-24T06:05:09.152Z,1022.15
2019-02-24T06:06:09.123Z,1022.10
2019-02-24T06:07:09.131Z,1022.10
2019-02-24T06:08:09.108Z,1022.15
2019-02-24T06:09:09.097Z,1022.11
2019-02-24T06:10:09.074Z,1022.11
2019-02-24T06:11:09.059Z,1022.14
2019-02-24T06:12:09.093Z,1022.16
2019-02-24T06:13:09.044Z,1022.12
2019-02-24T06:14:09.035Z,1022.13
2019-02-24T06:15:09.023Z,1022.14
2019-02-24T06:16:09.013Z,1022.13
2019-02-24T06:17:09.012Z,1022.13
2019-02-24T06:18:09.036Z,1022.13
2019-02-24T06:19:08.977Z,1022.09
2019-02-24T06:20:08.998Z,1022.13
2019-02-24T06:21:08.961Z,1022.16
2019-02-24T06:22:08.956Z,1022.15
2019-02-24T06:23:08.933Z,1022.21
2019-02-24T06:24:08.972Z,1022.16
2019-02-24T06:25:08.914Z,1022.18
2019-02-24T06:26:08.911Z,1022.15
2019-02-24T06:27:08.901Z,1022.16
2019-02-24T06:28:08.918Z,1022.20
2019-02-24T06:29:08.876Z,1022.23
2019-02-24T06:30:08.973Z,1022.26
2019-02-24T06:31:08.854Z,1022.26
2019-02-24T06:32:08.844Z,1022.30
2019-02-24T06:33:08.832Z,1022.31
2019-02-24T06:34:08.832Z,1022.34
2019-02-24T06:35:08.814Z,1022.32
2019-02-24T06:36:08.898Z,1022.34
2019-02-24T06:37:08.788Z,1022.40
2019-02-24T06:38:08.794Z,1022.41
2019-02-24T06:39:08.773Z,1022.37
2019-02-24T06:40:08.776Z,1022.33
2019-02-24T06:41:08.744Z,1022.34
2019-02-24T06:42:08.742Z,1022.41
2019-02-24T06:43:08.744Z,1022.44
2019-02-24T06:44:08.730Z,1022.41
2019-02-24T06:45:08.705Z,1022.38
2019-02-24T06:46:08.691Z,1022.44
2019-02-24T06:47:08.690Z,1022.45
2019-02-24T06:48:08.676Z,1022.48
2019-02-24T06:49:08.702Z,1022.41
2019-02-24T06:50:08.644Z,1022.44
2019-02-24T06:51:08.647Z,1022.50
2019-02-24T06:52:08.636Z,1022.49
2019-02-24T06:53:08.619Z,1022.45
2019-02-24T06:54:08.623Z,1022.51
2019-02-24T06:55:08.638Z,1022.56
2019-02-24T06:56:08.580Z,1022.57
2019-02-24T06:57:08.569Z,1022.55
2019-02-24T06:58:08.560Z,1022.60
2019-02-24T06:59:08.556Z,1022.64
2019-02-24T07:00:14.123Z,1022.63
2019-02-24T07:01:09.558Z,1022.63
2019-02-24T07:02:08.521Z,1022.70
2019-02-24T07:03:08.509Z,1022.69
2019-02-24T07:04:08.503Z,1022.71
2019-02-24T07:05:08.507Z,1022.73
2019-02-24T07:06:08.482Z,1022.82
2019-02-24T07:07:08.471Z,1022.84
2019-02-24T07:08:08.455Z,1022.84
2019-02-24T07:09:08.484Z,1022.83
2019-02-24T07:10:08.433Z,1022.83
2019-02-24T07:11:08.452Z,1022.78
2019-02-24T07:12:08.419Z,1022.80
2019-02-24T07:13:08.403Z,1022.77
2019-02-24T07:14:08.388Z,1022.74
2019-02-24T07:15:08.454Z,1022.76
2019-02-24T07:16:08.405Z,1022.84
2019-02-24T07:17:08.357Z,1022.77
2019-02-24T07:18:08.368Z,1022.70
2019-02-24T07:19:08.343Z,1022.75
2019-02-24T07:20:08.326Z,1022.73
2019-02-24T07:21:08.362Z,1022.75
2019-02-24T07:22:08.305Z,1022.77
2019-02-24T07:23:08.286Z,1022.70
2019-02-24T07:24:08.290Z,1022.73
2019-02-24T07:25:08.273Z,1022.72
2019-02-24T07:26:08.266Z,1022.72
2019-02-24T07:27:08.306Z,1022.77
2019-02-24T07:28:08.232Z,1022.72
2019-02-24T07:29:08.223Z,1022.73
2019-02-24T07:30:08.227Z,1022.74
2019-02-24T07:31:08.231Z,1022.74
2019-02-24T07:32:08.195Z,1022.73
2019-02-24T07:33:08.198Z,1022.65
2019-02-24T07:34:08.186Z,1022.69
2019-02-24T07:35:08.190Z,1022.73
2019-02-24T07:36:08.143Z,1022.76
2019-02-24T07:37:13.049Z,1022.76
2019-02-24T07:38:09.127Z,1022.77
2019-02-24T07:39:08.118Z,1022.83
2019-02-24T07:40:08.101Z,1022.81
2019-02-24T07:41:08.104Z,1022.83
2019-02-24T07:42:08.195Z,1022.81
2019-02-24T07:43:08.077Z,1022.87
2019-02-24T07:44:08.081Z,1022.86
2019-02-24T07:45:08.050Z,1022.83
2019-02-24T07:46:08.098Z,1022.83
2019-02-24T07:47:08.043Z,1022.70
2019-02-24T07:48:08.010Z,1022.61
2019-02-24T07:49:08.040Z,1022.68
2019-02-24T07:50:08.026Z,1022.64
2019-02-24T07:51:07.990Z,1022.70
2019-02-24T07:52:07.994Z,1022.76
2019-02-24T07:53:07.992Z,1022.75
2019-02-24T07:54:07.953Z,1022.77
2019-02-24T07:55:07.941Z,1022.72
2019-02-24T07:56:07.935Z,1022.81
2019-02-24T07:57:07.934Z,1022.80
2019-02-24T07:58:07.971Z,1022.81
2019-02-24T07:59:07.890Z,1022.80
2019-02-24T08:00:07.880Z,1022.80
2019-02-24T08:01:07.890Z,1022.80
2019-02-24T08:02:07.870Z,1022.86
2019-02-24T08:03:07.870Z,1022.91
2019-02-24T08:04:07.872Z,1023.01
2019-02-24T08:05:07.832Z,1023.01
2019-02-24T08:06:07.818Z,1022.96
2019-02-24T08:07:07.811Z,1023.00
2019-02-24T08:08:16.077Z,1022.92
2019-02-24T08:09:08.785Z,1022.98
2019-02-24T08:10:07.807Z,1022.95
2019-02-24T08:11:07.766Z,1022.92
2019-02-24T08:12:07.747Z,1022.88
2019-02-24T08:13:07.741Z,1022.93
2019-02-24T08:14:07.749Z,1022.85
2019-02-24T08:15:07.730Z,1022.85
2019-02-24T08:16:07.744Z,1022.85
2019-02-24T08:17:07.698Z,1022.76
2019-02-24T08:18:07.705Z,1022.84
2019-02-24T08:19:07.670Z,1022.79
2019-02-24T08:20:07.664Z,1022.81
2019-02-24T08:21:07.655Z,1022.76
2019-02-24T08:22:07.675Z,1022.73
2019-02-24T08:23:07.637Z,1022.72
2019-02-24T08:24:07.646Z,1022.69
2019-02-24T08:25:07.618Z,1022.74
2019-02-24T08:26:07.599Z,1022.68
2019-02-24T08:27:07.586Z,1022.68
2019-02-24T08:28:07.625Z,1022.75
2019-02-24T08:29:07.568Z,1022.65
2019-02-24T08:30:07.568Z,1022.68
2019-02-24T08:31:07.544Z,1022.65
2019-02-24T08:32:07.531Z,1022.68
2019-02-24T08:33:07.528Z,1022.67
2019-02-24T08:34:07.562Z,1022.68
2019-02-24T08:35:07.536Z,1022.69
2019-02-24T08:36:07.512Z,1022.66
2019-02-24T08:37:07.485Z,1022.73
2019-02-24T08:38:07.476Z,1022.67
2019-02-24T08:39:07.462Z,1022.64
2019-02-24T08:40:07.522Z,1022.64
2019-02-24T08:41:07.440Z,1022.63
2019-02-24T08:42:07.430Z,1022.60
2019-02-24T08:43:07.422Z,1022.60
2019-02-24T08:44:07.403Z,1022.44
2019-02-24T08:45:07.395Z,1022.38
2019-02-24T08:46:07.418Z,1022.31
2019-02-24T08:47:07.390Z,1022.27
2019-02-24T08:48:07.367Z,1022.27
2019-02-24T08:49:07.356Z,1022.32
2019-02-24T08:50:07.340Z,1022.30
2019-02-24T08:51:07.327Z,1022.30
2019-02-24T08:52:07.341Z,1022.34
2019-02-24T08:53:07.313Z,1022.36
2019-02-24T08:54:07.299Z,1022.37
2019-02-24T08:55:07.293Z,1022.39
2019-02-24T08:56:07.281Z,1022.42
2019-02-24T08:57:07.283Z,1022.52
2019-02-24T08:58:07.288Z,1022.46
2019-02-24T08:59:07.244Z,1022.51
2019-02-24T09:00:07.234Z,1022.69
2019-02-24T09:01:07.226Z,1022.70
2019-02-24T09:02:07.222Z,1022.72
2019-02-24T09:03:07.224Z,1022.73
2019-02-24T09:04:07.192Z,1022.75
2019-02-24T09:05:07.204Z,1022.82
2019-02-24T09:06:07.177Z,1022.87
2019-02-24T09:07:08.617Z,1022.86
2019-02-24T09:08:07.172Z,1022.85
2019-02-24T09:09:07.135Z,1022.83
2019-02-24T09:10:07.998Z,1022.88
2019-02-24T09:11:07.111Z,1022.86
2019-02-24T09:12:07.097Z,1022.82
2019-02-24T09:13:07.141Z,1022.89
2019-02-24T09:14:07.105Z,1022.87
2019-02-24T09:15:07.080Z,1022.78
2019-02-24T09:16:07.059Z,1022.64
2019-02-24T09:17:07.049Z,1022.66
2019-02-24T09:18:07.085Z,1022.67
2019-02-24T09:19:07.048Z,1022.72
2019-02-24T09:20:07.033Z,1022.70
2019-02-24T09:21:07.006Z,1022.74
2019-02-24T09:22:07.008Z,1022.75
2019-02-24T09:23:06.982Z,1022.82
2019-02-24T09:24:06.983Z,1022.77
2019-02-24T09:25:06.956Z,1022.73
2019-02-24T09:26:06.946Z,1022.69
2019-02-24T09:27:06.943Z,1022.69
2019-02-24T09:28:06.933Z,1022.67
2019-02-24T09:29:07.020Z,1022.67
2019-02-24T09:30:07.028Z,1022.70
2019-02-24T09:31:06.894Z,1022.63
2019-02-24T09:32:06.932Z,1022.62
2019-02-24T09:33:06.873Z,1022.68
2019-02-24T09:34:06.863Z,1022.64
2019-02-24T09:35:06.890Z,1022.61
2019-02-24T09:36:06.838Z,1022.77
2019-02-24T09:37:06.832Z,1022.67
2019-02-24T09:38:06.816Z,1022.68
2019-02-24T09:39:06.822Z,1022.77
2019-02-24T09:40:06.814Z,1022.68
2019-02-24T09:41:06.784Z,1022.68
2019-02-24T09:42:06.772Z,1022.73
2019-02-24T09:43:06.798Z,1022.69
2019-02-24T09:44:06.743Z,1022.72
2019-02-24T09:45:06.742Z,1022.70
2019-02-24T09:46:06.803Z,1022.63
2019-02-24T09:47:06.811Z,1022.77
2019-02-24T09:48:06.699Z,1022.66
2019-02-24T09:49:06.694Z,1022.68
2019-02-24T09:50:06.822Z,1022.69
2019-02-24T09:51:06.687Z,1022.64
2019-02-24T09:52:06.684Z,1022.70
2019-02-24T09:53:06.690Z,1022.63
2019-02-24T09:54:06.638Z,1022.61
2019-02-24T09:55:06.675Z,1022.71
2019-02-24T09:56:06.613Z,1022.76
2019-02-24T09:57:06.612Z,1022.70
2019-02-24T09:58:06.684Z,1022.72
2019-02-24T09:59:06.600Z,1022.61
2019-02-24T10:00:06.601Z,1022.70
2019-02-24T10:01:10.776Z,1022.67
2019-02-24T10:02:06.550Z,1022.73
2019-02-24T10:03:06.534Z,1022.61
2019-02-24T10:04:06.578Z,1022.64
2019-02-24T10:05:06.535Z,1022.62
2019-02-24T10:06:06.506Z,1022.56
2019-02-24T10:07:06.497Z,1022.57
2019-02-24T10:08:08.123Z,1022.60
2019-02-24T10:09:06.473Z,1022.66
2019-02-24T10:10:06.468Z,1022.54
2019-02-24T10:11:06.521Z,1022.54
2019-02-24T10:12:06.444Z,1022.55
2019-02-24T10:13:06.435Z,1022.55
2019-02-24T10:14:06.420Z,1022.60
2019-02-24T10:15:06.409Z,1022.59
2019-02-24T10:16:06.396Z,1022.61
2019-02-24T10:17:06.409Z,1022.59
2019-02-24T10:18:06.382Z,1022.57
2019-02-24T10:19:06.366Z,1022.61
2019-02-24T10:20:06.359Z,1022.60
2019-02-24T10:21:06.368Z,1022.57
2019-02-24T10:22:06.339Z,1022.60
2019-02-24T10:23:06.377Z,1022.57
2019-02-24T10:24:06.310Z,1022.62
2019-02-24T10:25:06.307Z,1022.65
2019-02-24T10:26:06.301Z,1022.75
2019-02-24T10:27:06.273Z,1022.76
2019-02-24T10:28:06.267Z,1022.72
2019-02-24T10:29:06.256Z,1022.74
2019-02-24T10:30:06.261Z,1022.88
2019-02-24T10:31:06.235Z,1022.69
2019-02-24T10:32:06.256Z,1022.76
2019-02-24T10:33:06.240Z,1022.86
2019-02-24T10:34:07.693Z,1022.82
2019-02-24T10:35:06.190Z,1022.84
2019-02-24T10:36:06.218Z,1022.82
2019-02-24T10:37:06.194Z,1022.91
2019-02-24T10:38:06.160Z,1022.81
2019-02-24T10:39:06.143Z,1022.87
2019-02-24T10:40:06.147Z,1022.98
2019-02-24T10:41:06.134Z,1022.93
2019-02-24T10:42:06.118Z,1022.91
2019-02-24T10:43:06.120Z,1022.96
2019-02-24T10:44:06.093Z,1022.93
2019-02-24T10:45:06.094Z,1022.96
2019-02-24T10:46:06.072Z,1022.95
2019-02-24T10:47:06.075Z,1022.95
2019-02-24T10:48:13.743Z,1022.98
2019-02-24T10:49:07.149Z,1022.95
2019-02-24T10:50:06.053Z,1022.99
2019-02-24T10:51:06.020Z,1022.95
2019-02-24T10:52:06.001Z,1022.88
2019-02-24T10:53:05.998Z,1022.91
2019-02-24T10:54:05.990Z,1022.90
2019-02-24T10:55:06.006Z,1022.96
2019-02-24T10:56:05.969Z,1022.99
2019-02-24T10:57:08.663Z,1022.99
2019-02-24T10:58:06.934Z,1023.04
2019-02-24T10:59:05.941Z,1023.06
2019-02-24T11:00:05.914Z,1023.01
2019-02-24T11:01:05.946Z,1023.05
2019-02-24T11:02:05.896Z,1023.05
2019-02-24T11:03:05.894Z,1023.03
2019-02-24T11:04:05.961Z,1023.04
2019-02-24T11:05:05.872Z,1023.07
2019-02-24T11:06:05.853Z,1023.02
2019-02-24T11:07:05.841Z,1023.04
2019-02-24T11:08:05.894Z,1023.01
2019-02-24T11:09:05.849Z,1023.05
2019-02-24T11:10:05.841Z,1023.02
2019-02-24T11:11:05.847Z,1023.07
2019-02-24T11:12:05.803Z,1023.02
2019-02-24T11:13:05.773Z,1023.01
2019-02-24T11:14:05.801Z,1023.03
2019-02-24T11:15:05.763Z,1023.03
2019-02-24T11:16:05.803Z,1022.97
2019-02-24T11:17:05.743Z,1023.00
2019-02-24T11:18:05.721Z,1022.94
2019-02-24T11:19:05.709Z,1022.96
2019-02-24T11:20:05.779Z,1023.00
2019-02-24T11:21:05.688Z,1022.97
2019-02-24T11:22:05.684Z,1022.96
2019-02-24T11:23:05.684Z,1022.95
2019-02-24T11:24:05.712Z,1022.92
2019-02-24T11:25:05.638Z,1022.91
2019-02-24T11:26:05.657Z,1022.88
2019-02-24T11:27:05.623Z,1022.93
2019-02-24T11:28:05.668Z,1022.86
2019-02-24T11:29:05.605Z,1022.93
2019-02-24T11:30:05.590Z,1022.96
2019-02-24T11:31:05.642Z,1022.95
2019-02-24T11:32:05.565Z,1022.96
2019-02-24T11:33:05.551Z,1022.94
2019-02-24T11:34:05.563Z,1022.88
2019-02-24T11:35:05.534Z,1022.89
2019-02-24T11:36:05.533Z,1022.85
2019-02-24T11:37:05.532Z,1022.84
2019-02-24T11:38:05.513Z,1022.89
2019-02-24T11:39:05.487Z,1022.86
2019-02-24T11:40:05.491Z,1022.85
2019-02-24T11:41:05.473Z,1022.83
2019-02-24T11:42:05.472Z,1022.81
2019-02-24T11:43:05.447Z,1022.81
2019-02-24T11:44:05.460Z,1022.82
2019-02-24T11:45:05.423Z,1022.79
2019-02-24T11:46:05.432Z,1022.84
2019-02-24T11:47:05.423Z,1022.79
2019-02-24T11:48:05.415Z,1022.79
2019-02-24T11:49:05.388Z,1022.80
2019-02-24T11:50:05.418Z,1022.78
2019-02-24T11:51:05.362Z,1022.80
2019-02-24T11:52:05.359Z,1022.76
2019-02-24T11:53:05.360Z,1022.74
2019-02-24T11:54:05.333Z,1022.75
2019-02-24T11:55:05.319Z,1022.66
2019-02-24T11:56:05.318Z,1022.64
2019-02-24T11:57:05.291Z,1022.64
2019-02-24T11:58:05.381Z,1022.64
2019-02-24T11:59:05.273Z,1022.62
2019-02-24T12:00:05.271Z,1022.58
2019-02-24T12:01:05.272Z,1022.55
2019-02-24T12:02:05.238Z,1022.58
2019-02-24T12:03:05.230Z,1022.62
2019-02-24T12:04:05.282Z,1022.58
2019-02-24T12:05:05.229Z,1022.64